createdAt,value
2022-11-29T00:00:38.933Z,8.77
2022-11-29T00:03:05.663Z,7.57
2022-11-29T00:05:35.047Z,6.65
2022-11-29T00:08:01.528Z,7.43
2022-11-29T00:10:28.051Z,6.97
2022-11-29T00:12:54.619Z,7.25
2022-11-29T00:15:21.141Z,10.70
2022-11-29T00:17:47.653Z,10.15
2022-11-29T00:20:14.220Z,8.15
2022-11-29T00:22:40.743Z,8.23
2022-11-29T00:25:07.437Z,7.47
2022-11-29T00:27:33.956Z,6.80
2022-11-29T00:30:00.497Z,7.05
2022-11-29T00:32:27.156Z,7.93
2022-11-29T00:34:53.622Z,9.20
2022-11-29T00:37:20.152Z,7.80
2022-11-29T00:39:46.624Z,7.68
2022-11-29T00:42:13.141Z,6.88
2022-11-29T00:44:39.640Z,7.03
2022-11-29T00:47:06.120Z,6.95
2022-11-29T00:49:32.566Z,9.60
2022-11-29T00:51:59.757Z,6.07
2022-11-29T00:54:26.260Z,9.40
2022-11-29T00:56:52.802Z,7.85
2022-11-29T00:59:19.312Z,7.47
2022-11-29T01:01:45.901Z,7.38
2022-11-29T01:04:12.596Z,7.68
2022-11-29T01:06:39.356Z,7.75
2022-11-29T01:09:05.844Z,7.20
2022-11-29T01:11:32.396Z,7.13
2022-11-29T01:14:01.411Z,8.18
2022-11-29T01:16:30.074Z,6.82
2022-11-29T01:18:56.814Z,12.38
2022-11-29T01:21:24.143Z,9.23
2022-11-29T01:23:52.164Z,8.85
2022-11-29T01:26:27.503Z,9.32
2022-11-29T01:28:55.158Z,8.45
2022-11-29T01:31:27.285Z,8.68
2022-11-29T01:34:01.863Z,6.63
2022-11-29T01:36:28.582Z,8.57
2022-11-29T01:38:55.129Z,7.75
2022-11-29T01:41:26.409Z,7.65
2022-11-29T01:44:14.074Z,10.18
2022-11-29T01:46:43.061Z,8.82
2022-11-29T01:49:48.228Z,5.72
2022-11-29T01:52:18.109Z,8.75
2022-11-29T01:54:47.632Z,7.93
2022-11-29T01:57:14.393Z,8.00
2022-11-29T01:59:44.323Z,8.65
2022-11-29T02:02:32.272Z,6.78
2022-11-29T02:05:00.083Z,7.00
2022-11-29T02:07:26.647Z,10.45
2022-11-29T02:09:53.277Z,8.50
2022-11-29T02:12:44.961Z,7.28
2022-11-29T02:15:28.820Z,8.55
2022-11-29T02:18:07.196Z,8.23
2022-11-29T02:21:01.464Z,6.85
2022-11-29T02:23:40.989Z,8.80
2022-11-29T02:26:13.609Z,7.75
2022-11-29T02:28:58.863Z,7.13
2022-11-29T02:31:54.976Z,7.88
2022-11-29T02:34:30.507Z,5.95
2022-11-29T02:37:22.479Z,8.63
2022-11-29T02:40:12.272Z,6.47
2022-11-29T02:43:16.289Z,6.10
2022-11-29T02:45:56.514Z,7.63
2022-11-29T02:48:46.212Z,7.25
2022-11-29T02:51:18.871Z,8.15
2022-11-29T02:53:52.518Z,9.32
2022-11-29T02:56:53.164Z,8.20
2022-11-29T02:59:40.989Z,6.47
2022-11-29T03:02:20.352Z,7.25
2022-11-29T03:05:17.877Z,6.25
2022-11-29T03:07:46.764Z,9.80
2022-11-29T03:10:32.224Z,8.15
2022-11-29T03:12:59.713Z,8.07
2022-11-29T03:15:46.287Z,7.68
2022-11-29T03:18:37.315Z,6.00
2022-11-29T03:21:13.600Z,8.10
2022-11-29T03:23:59.505Z,7.65
2022-11-29T03:26:45.076Z,5.93
2022-11-29T03:29:27.957Z,6.18
2022-11-29T03:32:02.085Z,8.18
2022-11-29T03:34:58.453Z,7.20
2022-11-29T03:37:56.165Z,7.25
2022-11-29T03:40:29.835Z,8.02
2022-11-29T03:43:08.545Z,6.90
2022-11-29T03:45:42.753Z,8.57
2022-11-29T03:48:32.065Z,7.00
2022-11-29T03:51:22.677Z,14.63
2022-11-29T03:54:08.279Z,7.72
2022-11-29T03:56:37.549Z,12.70
2022-11-29T03:59:23.718Z,7.82
2022-11-29T04:02:24.210Z,8.27
2022-11-29T04:07:48.011Z,8.20
2022-11-29T04:10:31.715Z,6.45
2022-11-29T04:13:35.627Z,6.93
2022-11-29T04:16:11.402Z,6.35
2022-11-29T04:18:48.687Z,7.35
2022-11-29T04:21:27.276Z,7.43
2022-11-29T04:24:31.571Z,8.38
2022-11-29T04:27:22.404Z,8.82
2022-11-29T04:30:04.191Z,5.43
2022-11-29T04:33:04.336Z,5.72
2022-11-29T04:35:48.987Z,6.53
2022-11-29T04:38:42.902Z,8.07
2022-11-29T04:41:32.597Z,6.38
2022-11-29T04:44:11.202Z,6.90
2022-11-29T04:47:01.852Z,7.28
2022-11-29T04:49:51.484Z,5.00
2022-11-29T04:52:30.659Z,8.00
2022-11-29T04:55:07.674Z,6.80
2022-11-29T04:57:47.660Z,7.57
2022-11-29T05:00:19.547Z,6.90
2022-11-29T05:03:06.999Z,6.20
2022-11-29T05:05:56.897Z,8.70
2022-11-29T05:08:44.575Z,6.53
2022-11-29T05:11:35.781Z,7.57
2022-11-29T05:14:34.045Z,7.78
2022-11-29T05:17:26.524Z,7.38
2022-11-29T05:20:15.273Z,6.07
2022-11-29T05:23:03.710Z,5.85
2022-11-29T05:25:57.231Z,6.13
2022-11-29T05:28:48.681Z,8.70
2022-11-29T05:32:00.232Z,7.10
2022-11-29T05:34:51.688Z,7.90
2022-11-29T05:37:38.309Z,5.85
2022-11-29T05:40:35.603Z,7.00
2022-11-29T05:43:30.904Z,5.82
2022-11-29T05:46:03.687Z,8.43
2022-11-29T05:48:58.191Z,6.72
2022-11-29T05:51:32.955Z,5.40
2022-11-29T05:54:05.677Z,7.63
2022-11-29T05:56:51.043Z,7.35
2022-11-29T05:59:21.983Z,8.02
2022-11-29T06:02:03.137Z,9.48
2022-11-29T06:04:58.655Z,6.97
2022-11-29T06:08:12.304Z,7.63
2022-11-29T06:10:52.157Z,4.97
2022-11-29T06:13:27.190Z,7.70
2022-11-29T06:16:14.277Z,12.40
2022-11-29T06:19:16.164Z,7.30
2022-11-29T06:22:01.198Z,6.13
2022-11-29T06:24:50.697Z,6.00
2022-11-29T06:27:48.360Z,8.55
2022-11-29T06:30:17.249Z,8.02
2022-11-29T06:32:47.369Z,7.25
2022-11-29T06:35:35.377Z,7.47
2022-11-29T06:38:29.484Z,6.10
2022-11-29T06:43:29.073Z,8.45
2022-11-29T06:45:58.388Z,7.05
2022-11-29T06:48:32.055Z,8.93
2022-11-29T06:51:16.218Z,9.68
2022-11-29T06:53:57.204Z,8.80
2022-11-29T06:57:08.325Z,7.63
2022-11-29T06:59:45.027Z,9.18
2022-11-29T07:02:28.587Z,10.48
2022-11-29T07:05:13.479Z,6.28
2022-11-29T07:07:41.525Z,12.98
2022-11-29T07:10:18.073Z,9.65
2022-11-29T07:12:46.085Z,10.93
2022-11-29T07:15:22.743Z,14.82
2022-11-29T07:18:24.571Z,14.18
2022-11-29T07:21:22.361Z,15.63
2022-11-29T07:24:18.259Z,11.40
2022-11-29T07:26:59.301Z,11.75
2022-11-29T07:29:45.328Z,14.45
2022-11-29T07:32:29.929Z,13.85
2022-11-29T07:35:00.627Z,17.10
2022-11-29T07:37:48.892Z,12.73
2022-11-29T07:40:18.255Z,12.60
2022-11-29T07:43:17.269Z,12.50
2022-11-29T07:45:43.828Z,18.10
2022-11-29T07:48:13.620Z,15.63
2022-11-29T07:50:40.947Z,17.83
2022-11-29T07:53:11.021Z,16.23
2022-11-29T07:55:37.588Z,13.95
2022-11-29T07:58:04.060Z,14.23
2022-11-29T08:00:30.627Z,14.57
2022-11-29T08:02:57.162Z,15.35
2022-11-29T08:05:23.924Z,11.88
2022-11-29T08:07:50.444Z,17.95
2022-11-29T08:10:17.145Z,12.63
2022-11-29T08:12:45.408Z,14.10
2022-11-29T08:15:12.282Z,16.38
2022-11-29T08:17:39.427Z,17.50
2022-11-29T08:20:07.186Z,12.95
2022-11-29T08:22:33.777Z,15.73
2022-11-29T08:25:01.300Z,16.50
2022-11-29T08:27:28.272Z,17.60
2022-11-29T08:29:54.778Z,15.75
2022-11-29T08:32:21.312Z,13.23
2022-11-29T08:34:48.102Z,13.57
2022-11-29T08:37:14.804Z,12.93
2022-11-29T08:39:41.446Z,13.90
2022-11-29T08:42:07.943Z,13.88
2022-11-29T08:44:34.513Z,18.13
2022-11-29T08:47:19.519Z,14.63
2022-11-29T08:50:01.194Z,14.43
2022-11-29T08:52:54.791Z,13.85
2022-11-29T08:55:23.488Z,15.80
2022-11-29T08:57:51.111Z,14.73
2022-11-29T09:00:18.376Z,13.32
2022-11-29T09:02:44.994Z,11.25
2022-11-29T09:05:11.848Z,12.32
2022-11-29T09:07:38.609Z,15.82
2022-11-29T09:10:08.186Z,14.30
2022-11-29T09:12:39.227Z,13.65
2022-11-29T09:15:08.291Z,13.93
2022-11-29T09:17:34.870Z,14.48
2022-11-29T09:20:01.717Z,14.75
2022-11-29T09:22:28.321Z,10.13
2022-11-29T09:24:54.883Z,14.25
2022-11-29T09:27:21.399Z,15.90
2022-11-29T09:29:48.040Z,15.07
2022-11-29T09:32:14.560Z,15.93
2022-11-29T09:34:42.234Z,26.17
2022-11-29T09:37:08.944Z,12.43
2022-11-29T09:39:35.545Z,14.60
2022-11-29T09:42:27.241Z,12.32
2022-11-29T09:45:18.407Z,10.93
2022-11-29T09:48:26.730Z,15.73
2022-11-29T09:51:19.429Z,11.18
2022-11-29T09:53:56.877Z,11.52
2022-11-29T09:56:29.187Z,10.35
2022-11-29T09:59:25.801Z,8.63
2022-11-29T10:02:03.904Z,13.25
2022-11-29T10:04:36.265Z,9.77
2022-11-29T10:07:11.586Z,13.68
2022-11-29T10:09:42.397Z,15.10
2022-11-29T10:12:30.656Z,11.52
2022-11-29T10:15:08.332Z,11.30
2022-11-29T10:17:39.263Z,11.40
2022-11-29T10:20:16.580Z,15.80
2022-11-29T10:22:53.430Z,9.98
2022-11-29T10:25:34.754Z,11.30
2022-11-29T10:30:27.726Z,10.00
2022-11-29T10:33:00.374Z,12.45
2022-11-29T10:35:29.368Z,12.98
2022-11-29T10:38:28.992Z,16.10
2022-11-29T10:40:47.831Z,10.85
2022-11-29T10:43:14.421Z,9.75
2022-11-29T10:45:50.393Z,12.20
2022-11-29T10:48:21.267Z,9.00
2022-11-29T10:50:49.340Z,11.50
2022-11-29T10:53:24.270Z,10.23
2022-11-29T10:58:28.637Z,15.98
2022-11-29T11:01:08.851Z,13.10
2022-11-29T11:03:43.392Z,10.20
2022-11-29T11:06:18.808Z,12.18
2022-11-29T11:08:56.747Z,10.52
2022-11-29T11:11:30.137Z,11.18
2022-11-29T11:13:59.360Z,10.38
2022-11-29T11:16:26.805Z,9.88
2022-11-29T11:18:53.468Z,10.68
2022-11-29T11:21:22.031Z,10.60
2022-11-29T11:26:20.609Z,10.32
2022-11-29T11:28:47.051Z,10.23
2022-11-29T11:31:14.226Z,11.93
2022-11-29T11:33:42.583Z,11.27
2022-11-29T11:36:15.364Z,12.40
2022-11-29T11:38:49.673Z,8.18
2022-11-29T11:41:47.563Z,7.93
2022-11-29T11:44:47.460Z,11.50
2022-11-29T11:47:18.522Z,10.82
2022-11-29T11:50:00.359Z,13.75
2022-11-29T11:52:29.544Z,9.60
2022-11-29T11:55:02.520Z,12.27
2022-11-29T11:57:30.140Z,10.30
2022-11-29T12:00:03.434Z,10.85
2022-11-29T12:05:12.760Z,8.63
2022-11-29T12:08:07.444Z,10.13
2022-11-29T12:10:34.690Z,9.82
2022-11-29T12:13:02.108Z,9.30
2022-11-29T12:15:31.621Z,11.55
2022-11-29T12:18:03.186Z,9.75
2022-11-29T12:20:37.244Z,9.35
2022-11-29T12:23:09.734Z,10.00
2022-11-29T12:25:50.618Z,9.32
2022-11-29T12:28:20.556Z,8.90
2022-11-29T12:31:11.534Z,10.02
2022-11-29T12:33:49.925Z,9.35
2022-11-29T12:36:22.432Z,7.75
2022-11-29T12:38:55.201Z,10.02
2022-11-29T12:41:43.184Z,10.48
2022-11-29T12:44:29.803Z,9.07
2022-11-29T12:47:36.477Z,9.52
2022-11-29T12:50:31.432Z,9.98
2022-11-29T12:55:49.084Z,8.80
2022-11-29T12:58:31.205Z,10.30
2022-11-29T13:01:07.949Z,11.63
2022-11-29T13:04:05.701Z,8.18
2022-11-29T13:06:41.661Z,11.57
2022-11-29T13:09:11.402Z,10.95
2022-11-29T13:11:40.292Z,9.15
2022-11-29T13:14:42.268Z,8.35
2022-11-29T13:17:06.071Z,8.57
2022-11-29T13:19:42.067Z,11.02
2022-11-29T13:22:23.828Z,10.18
2022-11-29T13:24:59.704Z,8.25
2022-11-29T13:27:35.797Z,9.20
2022-11-29T13:30:02.816Z,12.57
2022-11-29T13:32:38.505Z,8.45
2022-11-29T13:35:19.974Z,9.20
2022-11-29T13:38:01.197Z,9.07
2022-11-29T13:40:37.096Z,7.85
2022-11-29T13:43:18.973Z,10.20
2022-11-29T13:46:32.565Z,8.27
2022-11-29T13:48:59.137Z,7.72
2022-11-29T13:51:31.738Z,10.77
2022-11-29T13:54:03.076Z,6.47
2022-11-29T13:56:48.414Z,7.00
2022-11-29T13:59:22.878Z,9.70
2022-11-29T14:01:52.673Z,10.23
2022-11-29T14:04:32.842Z,10.70
2022-11-29T14:07:05.369Z,8.63
2022-11-29T14:09:52.162Z,10.60
2022-11-29T14:12:38.364Z,9.07
2022-11-29T14:15:10.941Z,6.68
2022-11-29T14:17:53.945Z,8.75
2022-11-29T14:20:23.356Z,9.10
2022-11-29T14:23:05.111Z,10.07
2022-11-29T14:28:23.038Z,7.47
2022-11-29T14:30:53.900Z,6.28
2022-11-29T14:33:40.945Z,8.45
2022-11-29T14:36:25.531Z,8.45
2022-11-29T14:39:13.248Z,8.73
2022-11-29T14:44:15.496Z,6.82
2022-11-29T14:46:42.145Z,7.00
2022-11-29T14:49:20.464Z,8.25
2022-11-29T14:52:29.847Z,10.38
2022-11-29T14:55:02.821Z,9.00
2022-11-29T14:57:47.288Z,6.03
2022-11-29T15:00:28.690Z,7.63
2022-11-29T15:03:09.152Z,7.90
2022-11-29T15:05:38.309Z,9.77
2022-11-29T15:08:27.278Z,9.00
2022-11-29T15:11:04.107Z,7.95
2022-11-29T15:13:35.950Z,8.98
2022-11-29T15:16:19.866Z,9.63
2022-11-29T15:19:03.243Z,6.70
2022-11-29T15:22:07.374Z,10.80
2022-11-29T15:24:55.188Z,6.13
2022-11-29T15:27:22.330Z,6.72
2022-11-29T15:29:49.168Z,7.60
2022-11-29T15:32:21.699Z,6.70
2022-11-29T15:34:50.411Z,7.25
2022-11-29T15:37:22.531Z,9.48
2022-11-29T15:40:04.276Z,7.38
2022-11-29T15:42:42.732Z,8.70
2022-11-29T15:45:29.090Z,7.25
2022-11-29T15:48:11.314Z,6.45
2022-11-29T15:50:38.490Z,8.95
2022-11-29T15:53:06.630Z,7.97
2022-11-29T15:55:33.436Z,7.45
2022-11-29T15:58:07.007Z,6.70
2022-11-29T16:00:35.351Z,6.80
2022-11-29T16:03:04.261Z,6.60
2022-11-29T16:05:37.541Z,5.38
2022-11-29T16:08:13.827Z,6.03
2022-11-29T16:10:43.684Z,6.07
2022-11-29T16:13:25.233Z,6.00
2022-11-29T16:16:19.909Z,5.05
2022-11-29T16:18:47.992Z,6.18
2022-11-29T16:21:22.267Z,7.13
2022-11-29T16:23:49.919Z,7.68
2022-11-29T16:26:19.904Z,6.07
2022-11-29T16:28:49.244Z,6.55
2022-11-29T16:31:34.612Z,6.15
2022-11-29T16:34:09.778Z,7.60
2022-11-29T16:36:36.618Z,6.25
2022-11-29T16:39:15.137Z,6.05
2022-11-29T16:41:41.617Z,5.78
2022-11-29T16:44:49.024Z,6.63
2022-11-29T16:47:19.623Z,7.15
2022-11-29T16:49:46.456Z,5.57
2022-11-29T16:52:24.772Z,5.57
2022-11-29T16:54:51.435Z,8.73
2022-11-29T16:57:18.087Z,6.15
2022-11-29T16:59:46.451Z,6.38
2022-11-29T17:02:14.428Z,5.78
2022-11-29T17:04:41.274Z,6.95
2022-11-29T17:07:09.570Z,5.38
2022-11-29T17:09:36.100Z,5.95
2022-11-29T17:12:02.681Z,5.95
2022-11-29T17:14:29.622Z,5.72
2022-11-29T17:16:56.269Z,5.20
2022-11-29T17:19:23.627Z,6.78
2022-11-29T17:21:51.479Z,7.07
2022-11-29T17:24:19.706Z,8.10
2022-11-29T17:26:46.311Z,6.03
2022-11-29T17:29:14.374Z,6.80
2022-11-29T17:31:43.505Z,7.30
2022-11-29T17:34:10.348Z,6.00
2022-11-29T17:36:37.330Z,5.68
2022-11-29T17:39:04.852Z,9.05
2022-11-29T17:41:32.669Z,4.65
2022-11-29T17:43:59.675Z,6.70
2022-11-29T17:46:32.003Z,8.68
2022-11-29T17:49:00.320Z,6.57
2022-11-29T17:54:14.535Z,6.03
2022-11-29T17:56:41.057Z,5.57
2022-11-29T17:59:07.762Z,9.60
2022-11-29T18:01:35.904Z,7.40
2022-11-29T18:04:05.444Z,8.45
2022-11-29T18:06:39.711Z,5.57
2022-11-29T18:09:08.297Z,5.88
2022-11-29T18:11:46.418Z,7.82
2022-11-29T18:14:16.798Z,6.72
2022-11-29T18:16:45.533Z,6.75
2022-11-29T18:19:14.507Z,5.72
2022-11-29T18:21:41.083Z,6.63
2022-11-29T18:24:08.343Z,5.35
2022-11-29T18:26:36.108Z,6.05
2022-11-29T18:29:03.459Z,7.25
2022-11-29T18:31:31.958Z,5.57
2022-11-29T18:34:00.648Z,5.07
2022-11-29T18:36:32.481Z,5.32
2022-11-29T18:39:00.935Z,7.72
2022-11-29T18:44:07.029Z,6.53
2022-11-29T18:46:36.415Z,9.05
2022-11-29T18:49:05.878Z,7.18
2022-11-29T18:51:33.339Z,6.15
2022-11-29T18:54:00.931Z,6.13
2022-11-29T18:56:29.636Z,9.23
2022-11-29T18:59:06.491Z,6.28
2022-11-29T19:01:35.179Z,7.13
2022-11-29T19:04:01.962Z,9.98
2022-11-29T19:06:37.159Z,8.10
2022-11-29T19:09:06.500Z,5.63
2022-11-29T19:11:34.200Z,4.97
2022-11-29T19:14:03.857Z,9.93
2022-11-29T19:16:32.275Z,4.65
2022-11-29T19:21:27.319Z,5.72
2022-11-29T19:23:56.470Z,7.53
2022-11-29T19:26:26.519Z,6.40
2022-11-29T19:28:53.463Z,8.02
2022-11-29T19:31:22.501Z,6.07
2022-11-29T19:33:49.075Z,6.55
2022-11-29T19:36:18.021Z,6.90
2022-11-29T19:38:50.162Z,5.95
2022-11-29T19:41:27.641Z,5.75
2022-11-29T19:43:56.289Z,7.13
2022-11-29T19:46:25.462Z,10.13
2022-11-29T19:48:53.045Z,5.90
2022-11-29T19:51:20.659Z,6.55
2022-11-29T19:53:48.156Z,5.22
2022-11-29T19:56:16.972Z,6.22
2022-11-29T19:58:43.925Z,7.75
2022-11-29T20:01:14.832Z,6.10
2022-11-29T20:03:42.084Z,6.15
2022-11-29T20:06:09.385Z,10.18
2022-11-29T20:08:36.547Z,8.07
2022-11-29T20:11:15.322Z,8.18
2022-11-29T20:13:43.485Z,5.97
2022-11-29T20:16:15.960Z,6.25
2022-11-29T20:18:50.444Z,5.40
2022-11-29T20:21:29.613Z,9.02
2022-11-29T20:24:01.136Z,5.93
2022-11-29T20:26:28.663Z,8.73
2022-11-29T20:28:55.336Z,7.93
2022-11-29T20:31:22.985Z,8.60
2022-11-29T20:33:51.497Z,6.07
2022-11-29T20:36:39.545Z,8.18
2022-11-29T20:39:31.938Z,4.50
2022-11-29T20:42:26.255Z,12.27
2022-11-29T20:44:55.068Z,5.68
2022-11-29T20:47:23.822Z,6.55
2022-11-29T20:49:50.598Z,7.03
2022-11-29T20:52:41.348Z,7.63
2022-11-29T20:55:08.069Z,4.60
2022-11-29T20:57:34.773Z,5.40
2022-11-29T21:00:02.592Z,5.95
2022-11-29T21:02:29.036Z,6.00
2022-11-29T21:04:55.588Z,5.28
2022-11-29T21:07:22.178Z,6.63
2022-11-29T21:09:48.727Z,5.00
2022-11-29T21:12:15.784Z,4.70
2022-11-29T21:14:43.886Z,5.13
2022-11-29T21:17:10.887Z,4.97
2022-11-29T21:19:37.639Z,7.82
2022-11-29T21:22:38.200Z,5.82
2022-11-29T21:25:22.816Z,5.32
2022-11-29T21:27:49.544Z,4.78
2022-11-29T21:30:21.380Z,5.97
2022-11-29T21:32:48.402Z,6.95
2022-11-29T21:35:15.460Z,4.60
2022-11-29T21:37:42.560Z,6.38
2022-11-29T21:40:10.461Z,7.88
2022-11-29T21:42:37.348Z,5.15
2022-11-29T21:45:08.135Z,7.03
2022-11-29T21:47:38.279Z,6.47
2022-11-29T21:50:05.360Z,8.05
2022-11-29T21:52:31.851Z,7.80
2022-11-29T21:54:58.371Z,4.93
2022-11-29T21:57:24.941Z,5.03
2022-11-29T21:59:51.486Z,4.90
2022-11-29T22:02:18.402Z,6.78
2022-11-29T22:04:45.556Z,6.90
2022-11-29T22:07:13.696Z,7.72
2022-11-29T22:09:40.255Z,5.20
2022-11-29T22:12:31.911Z,7.22
2022-11-29T22:14:53.308Z,4.45
2022-11-29T22:17:19.743Z,5.35
2022-11-29T22:19:46.232Z,7.68
2022-11-29T22:22:13.148Z,6.78
2022-11-29T22:24:39.700Z,5.30
2022-11-29T22:27:06.285Z,6.32
2022-11-29T22:29:32.930Z,7.65
2022-11-29T22:32:01.073Z,5.45
2022-11-29T22:34:28.022Z,5.28
2022-11-29T22:36:54.850Z,4.53
2022-11-29T22:39:22.597Z,5.38
2022-11-29T22:41:53.886Z,5.72
2022-11-29T22:44:21.591Z,5.25
2022-11-29T22:46:48.134Z,6.15
2022-11-29T22:49:14.851Z,6.22
2022-11-29T22:51:41.512Z,8.15
2022-11-29T22:54:10.364Z,5.78
2022-11-29T22:56:41.683Z,5.70
2022-11-29T22:59:08.887Z,5.50
2022-11-29T23:01:37.037Z,5.65
2022-11-29T23:04:07.051Z,4.95
2022-11-29T23:06:51.812Z,4.20
2022-11-29T23:09:22.032Z,6.10
2022-11-29T23:11:53.254Z,7.05
2022-11-29T23:14:20.381Z,7.00
2022-11-29T23:16:46.950Z,6.63
2022-11-29T23:19:16.114Z,7.18
2022-11-29T23:21:45.324Z,5.28
2022-11-29T23:24:12.253Z,6.05
2022-11-29T23:26:41.107Z,4.45
2022-11-29T23:29:10.049Z,6.63
2022-11-29T23:31:36.660Z,5.60
2022-11-29T23:34:03.617Z,6.07
2022-11-29T23:36:30.157Z,6.05
2022-11-29T23:38:56.748Z,5.38
2022-11-29T23:41:23.304Z,5.57
2022-11-29T23:43:50.109Z,5.13
2022-11-29T23:46:18.998Z,6.95
2022-11-29T23:48:45.879Z,5.72
2022-11-29T23:51:13.255Z,4.25
2022-11-29T23:53:40.604Z,7.57
2022-11-29T23:56:10.391Z,6.70
2022-11-29T23:58:37.884Z,5.22
